Latest Coastal Weather Observations for Kowanyama

IDQ60701

Issued at 4:35 am EST Saturday 1 November 2014 (issued every 10 minutes, with the page automatically refreshed every 10 minutes)

About coastal observations | Map of coastal stations | Coastal observations for QLD | Marine services | Other Formats
Station Details ID: 029038 Name: KOWANYAMA AIRPORT Lat: -15.48 Lon: 141.75 Height: 9.6 m
Data from the previous 72 hours. | See also: Recent months at Kowanyama
Date/Time
EST
Temp

°C
Wind Pressure Rain
since 9am
mm
Weather Cloud Vis
km
Sea
Height
m
Swell
Dir
 
Speed
knots
Gust
knots
hPa Trend Height
m
Period
s
Dir
01/04:30am 22.9 NE 2 4 1011.5 - 0.0 - - - - - - -
01/04:00am 23.1 NE 4 5 1011.2 - 0.0 - - - - - - -
01/03:30am 23.3 NNE 3 4 1011.1 - 0.0 - - - - - - -
01/03:00am 23.6 NNE 3 4 1010.9 - 0.0 - - - - - - -
01/02:30am 23.5 NNE 4 6 1010.9 - 0.0 - - - - - - -
01/02:00am 23.3 NE 3 4 1011.1 - 0.0 - - - - - - -
01/01:30am 23.3 NE 3 4 1011.2 - 0.0 - - - - - - -
01/01:00am 23.7 NE 3 4 1011.5 - 0.0 - - - - - - -
01/12:30am 23.9 NNE 2 3 1011.6 - 0.0 - - - - - - -
01/12:00am 24.1 N 3 4 1011.6 - 0.0 - - - - - - -
 
Date/Time
EST
Temp

°C
Wind Pressure Rain
since 9am
mm
Weather Cloud Vis
km
Sea
Height
m
Swell
Dir
 
Speed
knots
Gust
knots
hPa Trend Height
m
Period
s
Dir
31/11:30pm 24.3 NNE 3 4 1011.8 - 0.0 - - - - - - -
31/11:00pm 24.9 CALM 0 0 1011.8 - 0.0 - - - - - - -
31/10:30pm 25.2 NNE 2 4 1011.6 - 0.0 - - - - - - -
31/10:00pm 25.6 N 2 4 1011.3 - 0.0 - - - - - - -
31/09:30pm 25.9 SSW 3 4 1010.5 - 0.0 - - - - - - -
31/09:00pm 26.2 SSW 5 7 1009.9 - 0.0 - - - - - - -
31/08:30pm 26.4 SW 6 9 1009.6 - 0.0 - - - - - - -
31/08:00pm 26.7 SW 7 9 1009.3 - 0.0 - - - - - - -
31/07:30pm 27.0 SW 7 13 1008.9 - 0.0 - - - - - - -
31/07:00pm 27.4 WSW 7 10 1008.6 - 0.0 - - - - - - -
31/06:30pm 28.3 WSW 9 13 1008.1 - 0.0 - - - - - - -
31/06:00pm 29.3 W 9 12 1007.7 - 0.0 - - - - - - -
31/05:30pm 30.5 W 9 12 1007.3 - 0.0 - - - - - - -
31/05:00pm 31.4 WSW 10 13 1006.9 - 0.0 - - - - - - -
31/04:30pm 32.8 W 9 11 1006.9 - 0.0 - - - - - - -
31/04:00pm 33.9 SW 11 14 1006.9 - 0.0 - - - - - - -
31/03:30pm 33.6 WSW 10 14 1007.0 - 0.0 - - - - - - -
31/03:00pm 36.6 NE 6 10 1007.2 - 0.0 - - - - - - -
31/02:30pm 36.5 ESE 7 10 1007.5 - 0.0 - - - - - - -
31/02:00pm 36.3 ESE 6 9 1007.9 - 0.0 - - - - - - -
31/01:30pm 35.4 ESE 7 11 1008.6 - 0.0 - - - - - - -
31/01:00pm 35.6 E 7 10 1009.2 - 0.0 - - - - - - -
31/12:30pm 34.7 SE 11 14 1009.9 - 0.0 - - - - - - -
31/12:00pm 33.4 E 6 9 1010.6 - 0.0 - Mostly clear - - - - -
31/11:30am 31.9 NNE 5 9 1011.2 - 0.0 - - - - - - -
31/11:00am 32.0 ESE 6 11 1011.7 - 0.0 - - - - - - -
31/10:30am 31.1 ESE 5 9 1012.2 - 0.0 - - - - - - -
31/10:00am 30.2 ENE 6 10 1012.5 - 0.0 - - - - - - -
31/09:30am 29.4 NE 9 14 1012.6 - 0.0 - - - - - - -
31/09:00am 28.3 NE 8 13 1012.9 - 0.0 - - - - - - -
31/08:30am 26.6 ENE 8 12 1012.9 - 0.0 - - - - - - -
31/08:00am 25.6 NE 10 18 1012.3 - 0.0 - - - - - - -
31/07:30am 24.5 NE 9 13 1012.2 - 0.0 - - - - - - -
31/07:00am 23.3 NNE 5 8 1012.0 - 0.0 - - - - - - -
31/06:30am 22.4 ENE 3 5 1011.9 - 0.0 - - - - - - -
31/06:00am 22.2 NE 3 5 1011.6 - 0.0 - - - - - - -
31/05:30am 22.6 NE 3 5 1011.4 - 0.0 - - - - - - -
31/05:00am 22.9 NE 3 5 1011.5 - 0.0 - - - - - - -
31/04:30am 23.5 NNE 5 7 1011.2 - 0.0 - - - - - - -
31/04:00am 23.8 NNE 5 6 1011.1 - 0.0 - - - - - - -
31/03:30am 24.3 NNE 5 7 1010.9 - 0.0 - - - - - - -
31/03:00am 24.8 NE 7 10 1010.7 - 0.0 - - - - - - -
31/02:30am 25.0 NNE 7 12 1010.6 - 0.0 - Partly cloudy - - - - -
31/02:00am 24.9 NNE 5 7 1010.6 - 0.0 - Partly cloudy - - - - -
31/01:30am 25.1 NNE 4 7 1010.7 - 0.0 - Partly cloudy - - - - -
31/01:00am 25.1 NNE 4 6 1010.8 - 0.0 - Cloudy - - - - -
31/12:30am 24.5 NE 4 5 1010.9 - 0.0 - Partly cloudy - - - - -
31/12:00am 24.2 NE 4 5 1010.9 - 0.0 - Partly cloudy - - - - -
 
Date/Time
EST
Temp

°C
Wind Pressure Rain
since 9am
mm
Weather Cloud Vis
km
Sea
Height
m
Swell
Dir
 
Speed
knots
Gust
knots
hPa Trend Height
m
Period
s
Dir
30/11:30pm 24.6 CALM 0 0 1010.9 - 0.0 - - - - - - -
30/11:00pm 25.0 NNE 3 4 1011.0 - 0.0 - Partly cloudy - - - - -
30/10:30pm 25.2 NNE 5 7 1011.0 - 0.0 - Partly cloudy - - - - -
30/10:00pm 25.1 N 4 5 1010.5 - 0.0 - - - - - - -
30/09:30pm 25.8 WNW 2 3 1010.0 - 0.0 - - - - - - -
30/09:00pm 25.9 W 4 5 1009.5 - 0.0 - - - - - - -
30/08:30pm 26.1 W 4 6 1009.2 - 0.0 - - - - - - -
30/08:00pm 26.5 WSW 6 9 1008.9 - 0.0 - - - - - - -
30/07:30pm 26.9 WSW 7 10 1008.7 - 0.0 - - - - - - -
30/07:00pm 27.6 W 8 11 1008.3 - 0.0 - - - - - - -
30/06:30pm 28.4 W 8 11 1007.8 - 0.0 - - - - - - -
30/06:00pm 29.9 W 8 11 1007.6 - 0.0 - - - - - - -
30/05:30pm 30.9 W 10 13 1007.3 - 0.0 - - - - - - -
30/05:00pm 31.9 W 11 13 1007.1 - 0.0 - - - - - - -
30/04:30pm 32.7 WNW 11 13 1007.0 - 0.0 - - - - - - -
30/04:00pm 33.4 W 11 15 1007.1 - 0.0 - - - - - - -
30/03:30pm 34.5 WSW 10 14 1007.1 - 0.0 - - - - - - -
30/03:00pm 37.4 ENE 6 7 1007.4 - 0.0 - - - - - - -
30/02:30pm 36.8 SE 9 12 1007.8 - 0.0 - Partly cloudy - - - - -
30/02:00pm 36.4 E 7 12 1008.2 - 0.0 - - - - - - -
30/01:30pm 36.9 ESE 7 13 1008.8 - 0.0 - - - - - - -
30/01:00pm 35.5 SE 6 8 1009.5 - 0.0 - - - - - - -
30/12:30pm 35.0 ENE 6 11 1010.3 - 0.0 - - - - - - -
30/12:00pm 34.3 E 6 11 1011.0 - 0.0 - - - - - - -
30/11:30am 33.5 E 5 13 1011.5 - 0.0 - - - - - - -
30/11:00am 32.2 NE 6 10 1011.9 - 0.0 - - - - - - -
30/10:30am 30.6 ENE 6 9 1012.2 - 0.0 - - - - - - -
30/10:00am 29.3 ENE 6 9 1012.6 - 0.0 - - - - - - -
30/09:30am 28.0 E 8 11 1012.9 - 0.0 - - - - - - -
30/09:00am 27.5 NE 7 9 1013.2 - 0.0 - - - - - - -
30/08:30am 26.3 NNE 7 11 1013.2 - 0.0 - - - - - - -
30/08:00am 24.9 NE 10 14 1012.9 - 0.0 - - - - - - -
30/07:30am 24.1 NE 7 12 1013.0 - 0.0 - - - - - - -
30/07:00am 22.9 NE 7 11 1012.3 - 0.0 - - - - - - -
30/06:30am 22.3 NNE 6 10 1012.0 - 0.0 - - - - - - -
30/06:00am 22.3 NE 5 8 1011.9 - 0.0 - - - - - - -
30/05:30am 22.4 ENE 4 6 1011.7 - 0.0 - Partly cloudy - - - - -
30/05:00am 22.6 E 3 4 1011.3 - 0.0 - - - - - - -
30/04:30am 23.0 E 3 5 1011.0 - 0.0 - Partly cloudy - - - - -
30/04:00am 23.1 NE 3 5 1010.7 - 0.0 - - - - - - -
30/03:30am 23.2 NE 3 5 1010.8 - 0.0 - - - - - - -
30/03:00am 23.2 NE 3 5 1010.9 - 0.0 - - - - - - -
30/02:30am 23.2 NE 3 5 1010.9 - 0.0 - - - - - - -
30/02:00am 23.3 NE 4 5 1011.1 - 0.0 - - - - - - -
30/01:30am 23.3 NE 4 5 1011.4 - 0.0 - - - - - - -
30/01:00am 23.4 NE 4 5 1011.7 - 0.0 - - - - - - -
30/12:30am 23.6 NE 4 4 1011.9 - 0.0 - - - - - - -
30/12:00am 24.0 ENE 3 5 1012.0 - 0.0 - - - - - - -
 
Date/Time
EST
Temp

°C
Wind Pressure Rain
since 9am
mm
Weather Cloud Vis
km
Sea
Height
m
Swell
Dir
 
Speed
knots
Gust
knots
hPa Trend Height
m
Period
s
Dir
29/11:30pm 24.2 NE 3 5 1011.9 - 0.0 - - - - - - -
29/11:00pm 24.3 NNE 3 5 1011.8 - 0.0 - Partly cloudy - - - - -
29/10:30pm 24.3 N 5 7 1011.6 - 0.0 - - - - - - -
29/10:00pm 24.8 CALM 0 0 1010.9 - 0.0 - - - - - - -
29/09:30pm 25.1 WNW 3 4 1010.6 - 0.0 - - - - - - -
29/09:00pm 25.5 NW 3 5 1010.6 - 0.0 - - - - - - -
29/08:30pm 25.9 WNW 4 5 1010.5 - 0.0 - - - - - - -
29/08:00pm 26.1 W 7 9 1010.3 - 0.0 - - - - - - -
29/07:30pm 26.8 WNW 6 8 1010.0 - 0.0 - - - - - - -
29/07:00pm 27.2 W 8 11 1009.9 - 0.0 - - - - - - -
29/06:30pm 28.3 W 9 11 1009.5 - 0.0 - - - - - - -
29/06:00pm 29.6 W 8 11 1009.2 - 0.0 - - - - - - -
29/05:30pm 30.8 W 9 13 1009.0 - 0.0 - - - - - - -
29/05:00pm 31.1 W 11 12 1008.7 - 0.0 - - - - - - -
29/04:30pm 32.1 W 11 15 1008.7 - 0.0 - - - - - - -
29/04:00pm 32.0 W 11 15 1008.7 - 0.0 - - - - - - -
29/03:30pm 32.6 W 11 16 1008.8 - 0.0 - - - - - - -
29/03:00pm 34.4 W 12 16 1008.7 - 0.0 - - - - - - -
29/02:30pm 34.4 WNW 13 16 1009.0 - 0.0 - - - - - - -
29/02:00pm 36.9 ESE 8 11 1009.4 - 0.0 - - - - - - -
29/01:30pm 35.7 SSE 6 10 1010.0 - 0.0 - - - - - - -
29/01:00pm 35.7 N 3 6 1010.7 - 0.0 - - - - - - -
29/12:30pm 34.0 S 6 11 1011.2 - 0.0 - - - - - - -
29/12:00pm 33.3 S 4 11 1011.9 - 0.0 - - - - - - -
29/11:30am 32.2 E 6 9 1012.5 - 0.0 - - - - - - -
29/11:00am 31.3 W 2 6 1013.0 - 0.0 - - - - - - -
29/10:30am 30.6 ESE 5 8 1013.3 - 0.0 - - - - - - -
29/10:00am 29.9 SSE 4 6 1013.7 - 0.0 - - - - - - -
29/09:30am 28.4 ENE 4 6 1014.0 - 0.0 - - - - - - -
29/09:00am 27.6 NE 5 8 1014.0 - 0.0 - - - - - - -
29/08:30am 26.8 NE 6 9 1013.7 - 0.0 - - - - - - -
29/08:00am 25.5 NE 7 10 1013.5 - 0.0 - - - - - - -
29/07:30am 23.8 NNE 7 11 1013.1 - 0.0 - - - - - - -
29/07:00am 22.7 NE 5 9 1013.0 - 0.0 - - - - - - -
29/06:30am 21.7 NE 5 8 1012.7 - 0.0 - - - - - - -
29/06:00am 21.4 NE 4 7 1012.3 - 0.0 - - - - - - -
29/05:30am 21.5 NE 5 8 1012.1 - 0.0 - - - - - - -
29/05:00am 21.5 NE 3 5 1011.9 - 0.0 - - - - - - -

Other Formats:

Comma delimited format used in spreadsheet applications
http://www.bom.gov.au/fwo/IDQ60701/IDQ60701.94268.axf

JavaScript Object Notation format (JSON) in row-major order
http://www.bom.gov.au/fwo/IDQ60701/IDQ60701.94268.json